Fontana Observed Data For Previous 48 Hours

Caption
Day and Hour Reservoir Elevation (behind dam)* Tailwater Elevation (below dam)* Average Hourly Discharge*
2/19/2018 2 AM EST 1,670.43 1,281.90 10,306
2/19/2018 3 AM EST 1,670.40 1,281.84 10,298
2/19/2018 4 AM EST 1,670.38 1,281.91 10,305
2/19/2018 5 AM EST 1,670.33 1,281.89 10,308
2/19/2018 6 AM EST 1,670.32 1,281.85 10,308
2/19/2018 7 AM EST 1,670.27 1,281.89 10,312
2/19/2018 8 AM EST 1,670.24 1,281.90 10,323
2/19/2018 9 AM EST 1,670.22 1,281.87 10,312
2/19/2018 10 AM EST 1,670.18 1,281.85 10,318
2/19/2018 11 AM EST 1,670.14 1,281.94 10,332
2/19/2018 12 PM EST 1,670.10 1,281.87 10,301
2/19/2018 1 PM EST 1,670.06 1,281.87 10,308
2/19/2018 2 PM EST 1,670.05 1,281.88 10,325
2/19/2018 3 PM EST 1,670.01 1,281.85 10,313
2/19/2018 4 PM EST 1,669.97 1,281.89 10,330
2/19/2018 5 PM EST 1,669.94 1,281.84 10,323
2/19/2018 6 PM EST 1,669.91 1,281.85 10,322
2/19/2018 7 PM EST 1,669.88 1,281.83 10,323
2/19/2018 8 PM EST 1,669.85 1,281.89 10,310
2/19/2018 9 PM EST 1,669.80 1,281.91 10,336
2/19/2018 10 PM EST 1,669.77 1,281.88 10,333
2/19/2018 11 PM EST 1,669.73 1,281.89 10,335
2/20/2018 12 AM EST 1,669.69 1,281.87 10,334
2/20/2018 1 AM EST 1,669.66 1,281.94 10,334
2/20/2018 2 AM EST 1,669.63 1,281.90 10,337
2/20/2018 3 AM EST 1,669.56 1,281.88 10,339
2/20/2018 4 AM EST 1,669.55 1,281.91 10,331
2/20/2018 5 AM EST 1,669.50 1,281.96 10,331
2/20/2018 6 AM EST 1,669.48 1,281.92 10,344
2/20/2018 7 AM EST 1,669.44 1,281.86 10,330
2/20/2018 8 AM EST 1,669.44 1,281.88 10,330
2/20/2018 9 AM EST 1,669.36 1,281.87 10,343
2/20/2018 10 AM EST 1,669.32 1,281.95 10,344
2/20/2018 11 AM EST 1,669.27 1,281.88 10,338
2/20/2018 12 PM EST 1,669.22 1,281.86 10,336
2/20/2018 1 PM EST 1,669.16 1,281.85 10,345
2/20/2018 2 PM EST 1,669.14 1,281.73 9,140
2/20/2018 3 PM EST 1,669.12 1,281.88 10,345
2/20/2018 4 PM EST 1,669.07 1,281.96 10,352
2/20/2018 5 PM EST 1,669.02 1,281.81 10,348
2/20/2018 6 PM EST 1,669.02 1,281.86 10,355
2/20/2018 7 PM EST 1,668.95 1,281.89 10,355
2/20/2018 8 PM EST 1,668.91 1,281.86 10,345
2/20/2018 9 PM EST 1,668.89 1,281.85 10,347
2/20/2018 10 PM EST 1,668.82 1,281.88 10,360
2/20/2018 11 PM EST 1,668.78 1,281.88 10,363
2/21/2018 12 AM EST 1,668.75 1,281.88 10,351

Elevations are in feet above sea level. Discharges are in cubic feet per second and are reported at the end of the hour.